AAL1048 KLAX-KLAS
Flight info
| Callsign | AAL1048 |
|---|---|
| Flight time | 0h 46m |
| Altitude | 29000 |
| Route | ORCKA5 MISEN RNDRZ4 |
| Aircraft | B738/M-SDE2E3FGHIRWXY/LB1 |
Departure
| Time | 2026-05-08 00:33 |
|---|---|
| Airport | Los Angeles International Airport (KLAX) |
Arrival
| Time | 2026-05-08 01:19 |
|---|---|
| Airport | Harry Reid International Airport (KLAS) |
| Time | Latitude | Longitude | Altitude | Speed | Heading |
|---|---|---|---|---|---|
| 2026-05-08 00:14 | 33.93980 | -118.40731 | 92 ft | 0 kts | 71° |
| 2026-05-08 00:24 | 33.93973 | -118.40754 | 92 ft | 4 kts | 71° |
| 2026-05-08 00:24 | 33.93966 | -118.40778 | 93 ft | 4 kts | 73° |
| 2026-05-08 00:25 | 33.93963 | -118.40807 | 93 ft | 4 kts | 116° |
| 2026-05-08 00:25 | 33.93978 | -118.40819 | 92 ft | 4 kts | 173° |
| 2026-05-08 00:25 | 33.93994 | -118.40821 | 92 ft | 0 kts | 173° |
| 2026-05-08 00:27 | 33.93988 | -118.40820 | 93 ft | 3 kts | 173° |
| 2026-05-08 00:28 | 33.93961 | -118.40817 | 92 ft | 4 kts | 173° |
| 2026-05-08 00:28 | 33.93932 | -118.40813 | 94 ft | 4 kts | 173° |
| 2026-05-08 00:28 | 33.93891 | -118.40784 | 92 ft | 10 kts | 134° |
| 2026-05-08 00:28 | 33.93834 | -118.40730 | 94 ft | 10 kts | 139° |
| 2026-05-08 00:29 | 33.93814 | -118.40639 | 94 ft | 15 kts | 84° |
| 2026-05-08 00:29 | 33.93830 | -118.40475 | 94 ft | 24 kts | 83° |
| 2026-05-08 00:29 | 33.93852 | -118.40254 | 95 ft | 29 kts | 82° |
| 2026-05-08 00:29 | 33.93879 | -118.39993 | 95 ft | 31 kts | 83° |
| 2026-05-08 00:30 | 33.93905 | -118.39739 | 94 ft | 30 kts | 83° |
| 2026-05-08 00:30 | 33.93930 | -118.39495 | 94 ft | 29 kts | 82° |
| 2026-05-08 00:30 | 33.93954 | -118.39263 | 95 ft | 27 kts | 83° |
| 2026-05-08 00:30 | 33.93976 | -118.39047 | 93 ft | 25 kts | 83° |
| 2026-05-08 00:31 | 33.93996 | -118.38845 | 93 ft | 23 kts | 83° |
| 2026-05-08 00:31 | 33.94016 | -118.38655 | 95 ft | 23 kts | 83° |
| 2026-05-08 00:31 | 33.94034 | -118.38473 | 95 ft | 22 kts | 82° |
| 2026-05-08 00:31 | 33.94053 | -118.38294 | 97 ft | 21 kts | 83° |
| 2026-05-08 00:32 | 33.94070 | -118.38119 | 92 ft | 21 kts | 83° |
| 2026-05-08 00:32 | 33.94037 | -118.38000 | 94 ft | 15 kts | 165° |
| 2026-05-08 00:32 | 33.93978 | -118.38080 | 93 ft | 15 kts | 263° |
| 2026-05-08 00:32 | 33.93939 | -118.38453 | 100 ft | 89 kts | 263° |
| 2026-05-08 00:33 | 33.93834 | -118.39538 | 178 ft | 164 kts | 262° |
| 2026-05-08 00:33 | 33.93701 | -118.40977 | 1150 ft | 170 kts | 263° |
| 2026-05-08 00:33 | 33.93557 | -118.42470 | 2118 ft | 195 kts | 263° |
| 2026-05-08 00:33 | 33.93377 | -118.44205 | 2505 ft | 223 kts | 263° |
| 2026-05-08 00:34 | 33.93179 | -118.46061 | 3020 ft | 233 kts | 260° |
| 2026-05-08 00:34 | 33.92710 | -118.48025 | 3413 ft | 252 kts | 252° |
| 2026-05-08 00:34 | 33.92085 | -118.50043 | 4117 ft | 260 kts | 250° |
| 2026-05-08 00:34 | 33.91423 | -118.52062 | 4703 ft | 262 kts | 250° |
| 2026-05-08 00:35 | 33.90759 | -118.54091 | 4964 ft | 261 kts | 250° |
| 2026-05-08 00:35 | 33.90099 | -118.56123 | 4994 ft | 261 kts | 250° |
| 2026-05-08 00:35 | 33.89439 | -118.58162 | 5000 ft | 262 kts | 249° |
| 2026-05-08 00:35 | 33.88431 | -118.60010 | 5109 ft | 272 kts | 226° |
| 2026-05-08 00:36 | 33.86792 | -118.61170 | 5945 ft | 278 kts | 200° |
| 2026-05-08 00:36 | 33.84894 | -118.61468 | 6829 ft | 285 kts | 177° |
| 2026-05-08 00:36 | 33.82984 | -118.60771 | 7611 ft | 294 kts | 150° |
| 2026-05-08 00:36 | 33.81493 | -118.59087 | 8460 ft | 297 kts | 122° |
| 2026-05-08 00:37 | 33.80767 | -118.56789 | 9327 ft | 296 kts | 95° |
| 2026-05-08 00:37 | 33.80971 | -118.54366 | 10194 ft | 292 kts | 67° |
| 2026-05-08 00:37 | 33.82056 | -118.52270 | 10605 ft | 307 kts | 45° |
| 2026-05-08 00:38 | 33.85785 | -118.49122 | 11009 ft | 350 kts | 29° |
| 2026-05-08 00:38 | 33.87891 | -118.47643 | 11603 ft | 356 kts | 30° |
| 2026-05-08 00:38 | 33.90023 | -118.46087 | 12309 ft | 360 kts | 31° |
| 2026-05-08 00:38 | 33.92093 | -118.44387 | 13052 ft | 363 kts | 39° |
| 2026-05-08 00:39 | 33.93894 | -118.42241 | 13754 ft | 366 kts | 50° |
| 2026-05-08 00:39 | 33.95394 | -118.39741 | 14348 ft | 371 kts | 56° |
| 2026-05-08 00:39 | 33.96822 | -118.37144 | 15000 ft | 373 kts | 56° |
| 2026-05-08 00:39 | 33.98268 | -118.34532 | 15660 ft | 375 kts | 55° |
| 2026-05-08 00:40 | 33.99734 | -118.31922 | 16296 ft | 378 kts | 55° |
| 2026-05-08 00:40 | 34.01224 | -118.29288 | 16881 ft | 382 kts | 55° |
| 2026-05-08 00:40 | 34.02734 | -118.26628 | 17445 ft | 386 kts | 55° |
| 2026-05-08 00:40 | 34.04239 | -118.23976 | 18056 ft | 390 kts | 55° |
| 2026-05-08 00:41 | 34.05775 | -118.21267 | 18602 ft | 392 kts | 55° |
| 2026-05-08 00:41 | 34.07319 | -118.18539 | 19124 ft | 395 kts | 55° |
| 2026-05-08 00:41 | 34.08870 | -118.15798 | 19644 ft | 398 kts | 55° |
| 2026-05-08 00:41 | 34.10437 | -118.13027 | 20155 ft | 401 kts | 55° |
| 2026-05-08 00:42 | 34.12015 | -118.10233 | 20648 ft | 405 kts | 55° |
| 2026-05-08 00:42 | 34.13603 | -118.07417 | 21143 ft | 408 kts | 55° |
| 2026-05-08 00:42 | 34.15205 | -118.04577 | 21621 ft | 410 kts | 54° |
| 2026-05-08 00:42 | 34.16815 | -118.01719 | 22110 ft | 413 kts | 54° |
| 2026-05-08 00:43 | 34.18438 | -117.98835 | 22566 ft | 416 kts | 54° |
| 2026-05-08 00:43 | 34.20070 | -117.95933 | 23016 ft | 419 kts | 54° |
| 2026-05-08 00:43 | 34.21697 | -117.93038 | 23458 ft | 422 kts | 54° |
| 2026-05-08 00:43 | 34.23346 | -117.90100 | 23858 ft | 424 kts | 54° |
| 2026-05-08 00:44 | 34.25010 | -117.87134 | 24227 ft | 427 kts | 54° |
| 2026-05-08 00:44 | 34.26682 | -117.84151 | 24595 ft | 429 kts | 54° |
| 2026-05-08 00:44 | 34.28354 | -117.81166 | 24947 ft | 431 kts | 54° |
| 2026-05-08 00:44 | 34.30038 | -117.78153 | 25288 ft | 433 kts | 54° |
| 2026-05-08 00:45 | 34.31709 | -117.75164 | 25614 ft | 436 kts | 54° |
| 2026-05-08 00:45 | 34.33409 | -117.72122 | 25958 ft | 438 kts | 54° |
| 2026-05-08 00:45 | 34.35121 | -117.69054 | 26352 ft | 439 kts | 54° |
| 2026-05-08 00:45 | 34.36868 | -117.66021 | 26692 ft | 441 kts | 53° |
| 2026-05-08 00:46 | 34.38671 | -117.63002 | 27048 ft | 443 kts | 53° |
| 2026-05-08 00:46 | 34.40486 | -117.59999 | 27508 ft | 441 kts | 52° |
| 2026-05-08 00:46 | 34.42295 | -117.57007 | 28026 ft | 439 kts | 52° |
| 2026-05-08 00:46 | 34.44088 | -117.54030 | 28534 ft | 437 kts | 52° |
| 2026-05-08 00:47 | 34.45861 | -117.51072 | 29031 ft | 433 kts | 52° |
| 2026-05-08 00:47 | 34.49355 | -117.45214 | 29028 ft | 433 kts | 52° |
| 2026-05-08 00:48 | 34.52894 | -117.39259 | 29042 ft | 436 kts | 52° |
| 2026-05-08 00:48 | 34.56442 | -117.33273 | 29043 ft | 438 kts | 53° |
| 2026-05-08 00:49 | 34.59998 | -117.27266 | 29038 ft | 438 kts | 53° |
| 2026-05-08 00:49 | 34.63519 | -117.21307 | 29016 ft | 437 kts | 53° |
| 2026-05-08 00:49 | 34.65287 | -117.18310 | 28882 ft | 436 kts | 53° |
| 2026-05-08 00:50 | 34.67053 | -117.15316 | 28902 ft | 436 kts | 53° |
| 2026-05-08 00:50 | 34.70582 | -117.09324 | 28902 ft | 436 kts | 53° |
| 2026-05-08 00:51 | 34.74106 | -117.03335 | 28905 ft | 435 kts | 53° |
| 2026-05-08 00:51 | 34.77621 | -116.97346 | 28924 ft | 435 kts | 53° |
| 2026-05-08 00:52 | 34.81103 | -116.91403 | 28945 ft | 434 kts | 53° |
| 2026-05-08 00:52 | 34.84601 | -116.85422 | 28961 ft | 434 kts | 53° |
| 2026-05-08 00:53 | 34.88096 | -116.79438 | 28945 ft | 433 kts | 53° |
| 2026-05-08 00:53 | 34.91559 | -116.73500 | 28947 ft | 432 kts | 53° |
| 2026-05-08 00:54 | 34.94994 | -116.67490 | 28937 ft | 432 kts | 54° |
| 2026-05-08 00:54 | 34.98386 | -116.61446 | 28912 ft | 432 kts | 54° |
| 2026-05-08 00:55 | 35.01779 | -116.55403 | 28901 ft | 432 kts | 54° |
| 2026-05-08 00:55 | 35.05173 | -116.49365 | 28871 ft | 429 kts | 54° |
| 2026-05-08 00:55 | 35.06846 | -116.46385 | 28525 ft | 423 kts | 54° |
| 2026-05-08 00:56 | 35.08468 | -116.43492 | 28131 ft | 414 kts | 54° |
| 2026-05-08 00:56 | 35.10087 | -116.40614 | 27676 ft | 409 kts | 53° |
| 2026-05-08 00:56 | 35.11869 | -116.37941 | 27173 ft | 404 kts | 46° |
| 2026-05-08 00:56 | 35.13808 | -116.35486 | 26699 ft | 399 kts | 44° |
| 2026-05-08 00:57 | 35.15764 | -116.33097 | 26241 ft | 396 kts | 44° |
| 2026-05-08 00:57 | 35.17690 | -116.30712 | 25765 ft | 393 kts | 45° |
| 2026-05-08 00:57 | 35.19577 | -116.28315 | 25278 ft | 390 kts | 45° |
| 2026-05-08 00:57 | 35.21433 | -116.25920 | 24824 ft | 387 kts | 45° |
| 2026-05-08 00:58 | 35.23240 | -116.23564 | 24366 ft | 384 kts | 46° |
| 2026-05-08 00:58 | 35.25026 | -116.21136 | 23891 ft | 382 kts | 47° |
| 2026-05-08 00:58 | 35.26779 | -116.18709 | 23417 ft | 381 kts | 47° |
| 2026-05-08 00:58 | 35.28533 | -116.16286 | 22875 ft | 378 kts | 47° |
| 2026-05-08 00:59 | 35.30273 | -116.13893 | 22384 ft | 376 kts | 47° |
| 2026-05-08 00:59 | 35.32005 | -116.11517 | 21926 ft | 373 kts | 47° |
| 2026-05-08 00:59 | 35.33720 | -116.09164 | 21508 ft | 368 kts | 47° |
| 2026-05-08 00:59 | 35.35398 | -116.06860 | 21053 ft | 365 kts | 47° |
| 2026-05-08 01:00 | 35.37082 | -116.04546 | 20609 ft | 362 kts | 47° |
| 2026-05-08 01:00 | 35.38753 | -116.02247 | 20175 ft | 360 kts | 47° |
| 2026-05-08 01:00 | 35.40413 | -115.99964 | 19749 ft | 358 kts | 47° |
| 2026-05-08 01:00 | 35.42064 | -115.97691 | 19322 ft | 356 kts | 47° |
| 2026-05-08 01:01 | 35.43706 | -115.95428 | 18895 ft | 355 kts | 47° |
| 2026-05-08 01:01 | 35.45342 | -115.93172 | 18444 ft | 354 kts | 46° |
| 2026-05-08 01:01 | 35.46972 | -115.90923 | 17984 ft | 352 kts | 46° |
| 2026-05-08 01:01 | 35.48600 | -115.88674 | 17517 ft | 351 kts | 46° |
| 2026-05-08 01:02 | 35.50194 | -115.86471 | 17079 ft | 349 kts | 46° |
| 2026-05-08 01:02 | 35.51801 | -115.84248 | 16646 ft | 347 kts | 46° |
| 2026-05-08 01:02 | 35.53385 | -115.82056 | 16440 ft | 338 kts | 46° |
| 2026-05-08 01:02 | 35.54920 | -115.79930 | 16283 ft | 328 kts | 46° |
| 2026-05-08 01:03 | 35.56411 | -115.77864 | 16149 ft | 318 kts | 46° |
| 2026-05-08 01:03 | 35.57859 | -115.75857 | 16041 ft | 309 kts | 46° |
| 2026-05-08 01:03 | 35.59259 | -115.73916 | 15952 ft | 299 kts | 46° |
| 2026-05-08 01:03 | 35.60646 | -115.72032 | 15810 ft | 296 kts | 45° |
| 2026-05-08 01:04 | 35.62046 | -115.70151 | 15688 ft | 302 kts | 45° |
| 2026-05-08 01:04 | 35.63482 | -115.68220 | 15540 ft | 309 kts | 46° |
| 2026-05-08 01:04 | 35.64914 | -115.66290 | 15396 ft | 310 kts | 46° |
| 2026-05-08 01:04 | 35.66362 | -115.64333 | 15224 ft | 309 kts | 46° |
| 2026-05-08 01:05 | 35.67805 | -115.62383 | 15077 ft | 308 kts | 46° |
| 2026-05-08 01:05 | 35.69243 | -115.60439 | 14920 ft | 307 kts | 46° |
| 2026-05-08 01:05 | 35.70673 | -115.58503 | 14766 ft | 305 kts | 46° |
| 2026-05-08 01:05 | 35.72100 | -115.56570 | 14603 ft | 304 kts | 46° |
| 2026-05-08 01:06 | 35.73673 | -115.54875 | 14430 ft | 301 kts | 31° |
| 2026-05-08 01:06 | 35.75486 | -115.53612 | 14314 ft | 299 kts | 28° |
| 2026-05-08 01:06 | 35.77303 | -115.52379 | 14167 ft | 298 kts | 28° |
| 2026-05-08 01:06 | 35.79092 | -115.51155 | 14011 ft | 298 kts | 28° |
| 2026-05-08 01:07 | 35.80901 | -115.49907 | 13860 ft | 298 kts | 29° |
| 2026-05-08 01:07 | 35.82702 | -115.48654 | 13704 ft | 297 kts | 29° |
| 2026-05-08 01:07 | 35.84499 | -115.47398 | 13556 ft | 297 kts | 28° |
| 2026-05-08 01:07 | 35.86292 | -115.46141 | 13386 ft | 297 kts | 28° |
| 2026-05-08 01:08 | 35.88084 | -115.44883 | 13229 ft | 296 kts | 28° |
| 2026-05-08 01:08 | 35.89873 | -115.43627 | 13073 ft | 296 kts | 28° |
| 2026-05-08 01:08 | 35.91667 | -115.42369 | 12798 ft | 299 kts | 28° |
| 2026-05-08 01:08 | 35.93491 | -115.41097 | 12512 ft | 301 kts | 28° |
| 2026-05-08 01:09 | 35.95318 | -115.39824 | 12108 ft | 302 kts | 27° |
| 2026-05-08 01:09 | 35.97117 | -115.38568 | 11789 ft | 300 kts | 27° |
| 2026-05-08 01:09 | 35.98931 | -115.37299 | 11449 ft | 299 kts | 28° |
| 2026-05-08 01:09 | 36.00508 | -115.35625 | 11088 ft | 304 kts | 53° |
| 2026-05-08 01:10 | 36.01351 | -115.33250 | 10884 ft | 303 kts | 75° |
| 2026-05-08 01:10 | 36.01460 | -115.30668 | 10682 ft | 300 kts | 92° |
| 2026-05-08 01:10 | 36.01331 | -115.28114 | 10475 ft | 297 kts | 93° |
| 2026-05-08 01:10 | 36.01182 | -115.25580 | 10253 ft | 295 kts | 93° |
| 2026-05-08 01:11 | 36.01036 | -115.23055 | 10048 ft | 294 kts | 93° |
| 2026-05-08 01:11 | 36.00901 | -115.20574 | 9851 ft | 293 kts | 93° |
| 2026-05-08 01:11 | 36.00771 | -115.18071 | 9634 ft | 292 kts | 93° |
| 2026-05-08 01:11 | 36.00646 | -115.15608 | 9395 ft | 283 kts | 93° |
| 2026-05-08 01:12 | 36.00525 | -115.13227 | 9192 ft | 273 kts | 93° |
| 2026-05-08 01:12 | 36.00409 | -115.10934 | 9067 ft | 263 kts | 93° |
| 2026-05-08 01:12 | 36.00296 | -115.08685 | 8820 ft | 262 kts | 93° |
| 2026-05-08 01:12 | 36.00183 | -115.06444 | 8571 ft | 261 kts | 94° |
| 2026-05-08 01:13 | 36.00069 | -115.04209 | 8324 ft | 261 kts | 94° |
| 2026-05-08 01:13 | 35.99954 | -115.01978 | 8088 ft | 260 kts | 94° |
| 2026-05-08 01:13 | 35.99888 | -114.99737 | 7749 ft | 263 kts | 89° |
| 2026-05-08 01:13 | 35.99878 | -114.97476 | 7400 ft | 264 kts | 89° |
| 2026-05-08 01:14 | 35.99874 | -114.95224 | 7072 ft | 267 kts | 89° |
| 2026-05-08 01:14 | 36.00175 | -114.92978 | 6714 ft | 268 kts | 62° |
| 2026-05-08 01:14 | 36.01321 | -114.91240 | 6405 ft | 259 kts | 36° |
| 2026-05-08 01:14 | 36.02876 | -114.90218 | 6023 ft | 251 kts | 8° |
| 2026-05-08 01:15 | 36.04563 | -114.90334 | 5727 ft | 240 kts | 341° |
| 2026-05-08 01:15 | 36.06060 | -114.91143 | 5416 ft | 232 kts | 326° |
| 2026-05-08 01:15 | 36.07150 | -114.92535 | 5094 ft | 225 kts | 291° |
| 2026-05-08 01:15 | 36.07383 | -114.94396 | 4825 ft | 218 kts | 269° |
| 2026-05-08 01:16 | 36.07386 | -114.96244 | 4564 ft | 211 kts | 270° |
| 2026-05-08 01:16 | 36.07392 | -114.98008 | 4297 ft | 204 kts | 270° |
| 2026-05-08 01:16 | 36.07389 | -114.99730 | 4040 ft | 197 kts | 269° |
| 2026-05-08 01:16 | 36.07384 | -115.01394 | 3795 ft | 192 kts | 269° |
| 2026-05-08 01:17 | 36.07381 | -115.03045 | 3566 ft | 192 kts | 269° |
| 2026-05-08 01:17 | 36.07379 | -115.04639 | 3343 ft | 177 kts | 269° |
| 2026-05-08 01:17 | 36.07375 | -115.06104 | 3127 ft | 164 kts | 269° |
| 2026-05-08 01:17 | 36.07372 | -115.07485 | 2982 ft | 157 kts | 270° |
| 2026-05-08 01:18 | 36.07370 | -115.08873 | 2732 ft | 164 kts | 270° |
| 2026-05-08 01:18 | 36.07368 | -115.10284 | 2496 ft | 165 kts | 270° |
| 2026-05-08 01:18 | 36.07357 | -115.11681 | 2261 ft | 163 kts | 270° |
| 2026-05-08 01:18 | 36.07359 | -115.13079 | 2086 ft | 161 kts | 270° |
| 2026-05-08 01:19 | 36.07362 | -115.14300 | 2112 ft | 113 kts | 270° |
| 2026-05-08 01:19 | 36.07364 | -115.15000 | 2127 ft | 50 kts | 270° |
| 2026-05-08 01:19 | 36.07373 | -115.15207 | 2131 ft | 13 kts | 278° |
| 2026-05-08 01:19 | 36.07397 | -115.15334 | 2135 ft | 18 kts | 288° |
| 2026-05-08 01:20 | 36.07466 | -115.15500 | 2141 ft | 26 kts | 300° |
| 2026-05-08 01:20 | 36.07592 | -115.15689 | 2145 ft | 31 kts | 316° |
| 2026-05-08 01:20 | 36.07757 | -115.15817 | 2144 ft | 22 kts | 11° |
| 2026-05-08 01:20 | 36.07806 | -115.15605 | 2142 ft | 35 kts | 90° |
| 2026-05-08 01:21 | 36.07813 | -115.15364 | 2139 ft | 21 kts | 68° |
| 2026-05-08 01:21 | 36.07941 | -115.15367 | 2135 ft | 21 kts | 335° |
| 2026-05-08 01:21 | 36.08069 | -115.15439 | 2132 ft | 19 kts | 345° |
| 2026-05-08 01:21 | 36.08117 | -115.15321 | 2126 ft | 21 kts | 103° |
| 2026-05-08 01:22 | 36.08077 | -115.15137 | 2125 ft | 23 kts | 115° |
| 2026-05-08 01:22 | 36.07971 | -115.14993 | 2123 ft | 22 kts | 139° |
| 2026-05-08 01:22 | 36.07865 | -115.14878 | 2121 ft | 21 kts | 102° |
| 2026-05-08 01:22 | 36.07852 | -115.14695 | 2110 ft | 23 kts | 95° |
| 2026-05-08 01:23 | 36.07839 | -115.14492 | 2105 ft | 25 kts | 94° |
| 2026-05-08 01:23 | 36.07825 | -115.14275 | 2098 ft | 27 kts | 93° |
| 2026-05-08 01:23 | 36.07875 | -115.14154 | 2093 ft | 17 kts | 1° |
| 2026-05-08 01:23 | 36.07996 | -115.14154 | 2093 ft | 18 kts | 359° |
| 2026-05-08 01:24 | 36.08131 | -115.14155 | 2090 ft | 20 kts | 0° |
| 2026-05-08 01:24 | 36.08242 | -115.14145 | 2088 ft | 11 kts | 36° |
| 2026-05-08 01:24 | 36.08256 | -115.14058 | 2090 ft | 8 kts | 87° |
| 2026-05-08 01:24 | 36.08256 | -115.14053 | 2090 ft | 0 kts | 87° |